Time;durP1;ratioP1;P1;durP2;ratioP2;P2;SDS_P1;SDS_P2;PMS_P1;PMS_P2;Temp;Humidity;BMP_temperature;BMP_pressure;BME280_temperature;BME280_humidity;BME280_pressure;Samples;Min_cycle;Max_cycle;Signal;HPM_P1;HPM_P2
2021/04/18 00:00:05;;;;;;;;;;;5.30;99.90;;;3.39;78.28;95871.06;10230570;28;1585;-79
2021/04/18 00:05:07;;;;;;;;;;;4.50;99.90;;;3.31;78.26;95866.03;10203356;29;1381;-79
2021/04/18 00:10:08;;;;;;;;;;;5.10;99.90;;;3.35;78.65;95865.38;10204957;28;1553;-79
2021/04/18 00:15:11;;;;;;;;;;;4.40;99.90;;;3.23;78.72;95857.34;10200887;29;1973;-79
2021/04/18 00:20:13;;;;;;;;;;;6.20;99.90;;;3.14;78.88;95861.38;10200249;29;1683;-78
2021/04/18 00:25:14;;;;;;;;;;;4.60;99.90;;;3.16;78.92;95853.16;10220245;29;1641;-78
2021/04/18 00:30:24;;;;;;;;;;;4.20;99.90;;;3.14;79.50;95842.78;10211968;29;1408;-79
2021/04/18 00:35:33;;;;;;;;;;;6.10;99.90;;;3.11;79.73;95845.88;10212781;29;1903;-78
2021/04/18 00:40:34;;;;;;;;;;;4.50;99.90;;;3.09;79.68;95845.28;10210775;29;1270;-78
2021/04/18 00:45:36;;;;;;;;;;;4.20;99.90;;;3.04;79.73;95847.00;10221867;29;1742;-79
2021/04/18 00:50:38;;;;;;;;;;;4.20;99.90;;;3.13;80.09;95835.84;10209086;29;1701;-79
2021/04/18 00:55:40;;;;;;;;;;;4.10;99.90;;;3.09;80.22;95847.94;10216431;29;1986;-78
2021/04/18 01:00:42;;;;;;;;;;;5.90;99.90;;;3.02;81.01;95849.06;10215064;29;1734;-77
2021/04/18 01:05:44;;;;;;;;;;;4.10;99.90;;;2.97;81.03;95839.13;10196983;29;3399;-79
2021/04/18 01:10:46;;;;;;;;;;;4.00;99.90;;;2.97;81.79;95839.13;10216421;29;2471;-80
2021/04/18 01:15:48;;;;;;;;;;;4.00;99.90;;;2.97;81.42;95839.13;10215793;29;2740;-77
2021/04/18 01:20:50;;;;;;;;;;;4.00;99.90;;;2.91;81.39;95834.69;10201303;29;2471;-78
2021/04/18 01:25:51;;;;;;;;;;;4.60;99.90;;;2.89;82.05;95828.81;10212212;29;1917;-77
2021/04/18 01:30:53;;;;;;;;;;;4.20;99.90;;;2.83;82.33;95824.41;10218273;29;1252;-79
2021/04/18 01:35:55;;;;;;;;;;;3.90;99.90;;;2.69;83.19;95823.75;10207943;29;1918;-77
2021/04/18 01:40:56;;;;;;;;;;;3.90;99.90;;;2.70;83.22;95820.88;10207713;29;2550;-79
2021/04/18 01:45:58;;;;;;;;;;;4.60;99.90;;;2.78;83.20;95826.91;10214503;29;1253;-79
2021/04/18 01:51:00;;;;;;;;;;;3.80;99.90;;;2.80;83.53;95824.81;10201079;29;1700;-80
2021/04/18 01:56:02;;;;;;;;;;;6.20;99.90;;;2.69;83.57;95829.88;10219831;29;1982;-79
2021/04/18 02:01:03;;;;;;;;;;;3.80;99.90;;;2.70;83.59;95823.53;10198266;29;1768;-80
2021/04/18 02:06:05;;;;;;;;;;;3.80;99.90;;;2.58;84.28;95827.94;10229906;29;1233;-78
2021/04/18 02:11:07;;;;;;;;;;;3.70;99.90;;;2.60;84.78;95823.22;10210985;29;1790;-79
2021/04/18 02:16:10;;;;;;;;;;;3.70;99.90;;;2.65;84.58;95828.69;10217774;29;1915;-78
2021/04/18 02:21:12;;;;;;;;;;;3.70;99.90;;;2.69;84.83;95826.41;10198987;29;1757;-80
2021/04/18 02:26:13;;;;;;;;;;;3.70;99.90;;;2.60;84.49;95823.22;10211978;29;1807;-80
2021/04/18 02:31:15;;;;;;;;;;;3.70;99.90;;;2.54;84.67;95826.75;10212419;29;1260;-78
2021/04/18 02:36:17;;;;;;;;;;;3.60;99.90;;;2.54;84.79;95826.75;10207384;29;1960;-79
2021/04/18 02:41:18;;;;;;;;;;;4.50;99.90;;;2.66;84.63;95813.56;10220264;29;3342;-79
2021/04/18 02:46:20;;;;;;;;;;;3.70;99.90;;;2.77;84.33;95817.31;10238777;29;1951;-81
2021/04/18 02:51:22;;;;;;;;;;;3.70;99.90;;;2.64;84.63;95818.28;10236987;29;1680;-81
2021/04/18 02:56:24;;;;;;;;;;;3.70;99.90;;;2.73;84.72;95811.63;10224073;29;1940;-80
2021/04/18 03:01:26;;;;;;;;;;;3.70;99.90;;;2.78;84.45;95816.28;10232747;29;1506;-79
2021/04/18 03:06:28;;;;;;;;;;;4.90;99.90;;;2.83;84.36;95806.63;10250629;29;1415;-81
2021/04/18 03:11:29;;;;;;;;;;;4.20;99.90;;;2.85;83.96;95814.34;10238526;29;1254;-79
2021/04/18 03:16:31;;;;;;;;;;;3.90;99.90;;;2.88;84.08;95809.41;10248397;29;1887;-81
2021/04/18 03:21:33;;;;;;;;;;;3.90;99.90;;;2.98;83.36;95806.22;10241826;29;1301;-79
2021/04/18 03:26:35;;;;;;;;;;;3.90;99.90;;;3.01;83.66;95811.09;10228408;29;1801;-80
2021/04/18 03:31:36;;;;;;;;;;;4.00;99.90;;;3.07;83.21;95812.03;10225878;29;1657;-80
2021/04/18 03:36:38;;;;;;;;;;;4.30;99.90;;;3.01;82.95;95810.28;10204255;29;1918;-79
2021/04/18 03:41:40;;;;;;;;;;;5.90;99.90;;;2.90;84.18;95809.19;10226319;29;1608;-79
2021/04/18 03:46:42;;;;;;;;;;;4.00;99.90;;;2.81;84.06;95807.91;10224449;29;1244;-79
2021/04/18 03:51:44;;;;;;;;;;;3.90;99.90;;;2.84;84.63;95810.09;10211278;29;2054;-80
2021/04/18 03:56:46;;;;;;;;;;;3.90;99.90;;;2.83;84.86;95809.28;10217919;29;1907;-79
2021/04/18 04:01:48;;;;;;;;;;;4.00;99.90;;;2.68;85.10;95814.97;10216294;29;1392;-79
2021/04/18 04:06:50;;;;;;;;;;;5.00;99.90;;;2.75;85.21;95806.13;10235331;29;1924;-79
2021/04/18 04:11:51;;;;;;;;;;;3.70;99.90;;;2.79;85.31;95808.09;10213220;29;1651;-79
2021/04/18 04:16:54;;;;;;;;;;;3.80;99.90;;;2.77;85.27;95807.50;10216610;29;2011;-79
2021/04/18 04:21:56;;;;;;;;;;;5.00;99.90;;;2.82;85.49;95807.66;10240771;29;1995;-81
2021/04/18 04:26:58;;;;;;;;;;;5.20;99.90;;;2.89;84.54;95810.22;10231803;29;1727;-80
2021/04/18 04:32:00;;;;;;;;;;;5.70;99.90;;;2.75;85.25;95806.94;10236470;29;2028;-80
2021/04/18 04:37:01;;;;;;;;;;;3.80;99.90;;;2.66;84.84;95814.38;10236308;29;1063;-79
2021/04/18 04:42:03;;;;;;;;;;;5.20;99.90;;;2.59;85.08;95816.31;10248263;29;1902;-78
2021/04/18 04:47:05;;;;;;;;;;;3.80;99.90;;;2.66;86.03;95813.56;10225644;29;2057;-79
2021/04/18 04:52:09;;;;;;;;;;;5.00;99.90;;;2.66;85.94;95825.00;10215162;29;1919;-79
2021/04/18 04:57:11;;;;;;;;;;;3.70;99.90;;;2.78;85.43;95824.25;10224854;29;1979;-79
2021/04/18 05:02:14;;;;;;;;;;;4.70;99.90;;;2.92;84.33;95828.34;10221171;29;2513;-79
2021/04/18 05:07:16;;;;;;;;;;;3.80;99.90;;;2.93;84.34;95830.00;10220888;29;2295;-79
2021/04/18 05:12:19;;;;;;;;;;;3.90;99.90;;;2.90;84.18;95830.44;10224407;29;4765;-79
2021/04/18 05:17:21;;;;;;;;;;;3.90;99.90;;;2.82;84.91;95834.22;10221339;29;1272;-77
2021/04/18 05:22:23;;;;;;;;;;;4.30;99.90;;;2.78;85.04;95837.53;10208553;29;1379;-80
2021/04/18 05:27:25;;;;;;;;;;;3.80;99.90;;;2.85;84.48;95835.59;10224608;29;1550;-80
2021/04/18 05:32:26;;;;;;;;;;;4.00;99.90;;;3.00;84.61;95836.03;10233012;29;2023;-80
2021/04/18 05:37:30;;;;;;;;;;;4.10;99.90;;;3.09;85.13;95847.13;10218088;29;1579;-81
2021/04/18 05:42:32;;;;;;;;;;;4.20;99.90;;;3.17;84.08;95847.63;10219521;28;1966;-80
2021/04/18 05:47:34;;;;;;;;;;;5.20;99.90;;;3.14;84.16;95850.75;10239622;29;2105;-79
2021/04/18 05:52:36;;;;;;;;;;;6.20;99.90;;;3.04;84.31;95858.44;10234166;29;1914;-80
2021/04/18 05:57:38;;;;;;;;;;;4.80;99.90;;;3.04;83.53;95855.78;10220791;29;1411;-78
2021/04/18 06:02:39;;;;;;;;;;;4.20;99.90;;;3.23;83.73;95856.53;10211681;29;2020;-81
2021/04/18 06:07:42;;;;;;;;;;;5.60;99.90;;;3.33;83.26;95858.69;10214226;29;2355;-80
2021/04/18 06:12:44;;;;;;;;;;;5.40;99.90;;;3.14;83.55;95861.38;10204386;29;2454;-80
2021/04/18 06:17:46;;;;;;;;;;;4.30;99.90;;;3.25;84.54;95865.13;10200497;29;1612;-80
2021/04/18 06:22:48;;;;;;;;;;;5.20;99.90;;;2.94;85.47;95868.78;10195961;29;1968;-79
2021/04/18 06:27:50;;;;;;;;;;;4.20;99.90;;;3.25;84.12;95868.59;10199251;29;1680;-80
2021/04/18 06:32:51;;;;;;;;;;;5.20;99.90;;;3.21;84.37;95867.41;10215865;29;1958;-81
2021/04/18 06:37:53;;;;;;;;;;;4.90;99.90;;;3.15;84.91;95859.53;10231221;29;1212;-79
2021/04/18 06:42:55;;;;;;;;;;;4.80;99.90;;;3.39;85.72;95860.44;10241322;29;1543;-79
2021/04/18 06:47:57;;;;;;;;;;;4.30;99.90;;;3.58;85.61;95866.50;10252152;29;1378;-81
2021/04/18 06:52:59;;;;;;;;;;;4.40;99.90;;;3.60;84.64;95857.25;10258334;29;1914;-79
2021/04/18 06:58:00;;;;;;;;;;;5.90;99.90;;;3.60;83.97;95864.41;10243555;29;1258;-78
2021/04/18 07:03:02;;;;;;;;;;;4.60;99.90;;;3.77;83.05;95862.72;10225354;29;1614;-77
2021/04/18 07:08:05;;;;;;;;;;;5.60;99.90;;;3.82;83.88;95859.38;10203659;29;1662;-78
2021/04/18 07:13:06;;;;;;;;;;;4.80;99.90;;;4.00;83.57;95862.75;10209543;29;1970;-80
2021/04/18 07:18:08;;;;;;;;;;;5.80;99.90;;;4.45;82.96;95850.72;10236272;29;1674;-83
2021/04/18 07:23:10;;;;;;;;;;;6.10;99.90;;;4.50;78.52;95858.81;10245207;29;1277;-79
2021/04/18 07:28:12;;;;;;;;;;;6.10;99.90;;;4.48;80.84;95851.06;10250053;29;1602;-81
2021/04/18 07:33:14;;;;;;;;;;;5.40;99.90;;;4.85;78.30;95854.25;10232296;29;1956;-80
2021/04/18 07:38:16;;;;;;;;;;;5.50;99.90;;;5.05;77.58;95853.03;10223363;29;1768;-80
2021/04/18 07:43:20;;;;;;;;;;;6.60;99.90;;;5.43;77.17;95847.09;10221145;29;1101;-79
2021/04/18 07:48:22;;;;;;;;;;;6.00;99.90;;;5.77;76.96;95849.81;10224542;29;1299;-79
2021/04/18 07:53:24;;;;;;;;;;;6.30;99.90;;;5.31;75.09;95854.34;10230652;29;1887;-81
2021/04/18 07:58:26;;;;;;;;;;;6.50;99.90;;;5.58;78.56;95846.56;10225690;28;1319;-81
2021/04/18 08:03:28;;;;;;;;;;;6.50;99.90;;;5.55;75.34;95847.84;10233353;29;1544;-80
2021/04/18 08:08:30;;;;;;;;;;;6.50;99.90;;;5.43;76.44;95847.91;10236258;28;1670;-79
2021/04/18 08:13:32;;;;;;;;;;;6.30;99.90;;;5.30;75.96;95845.53;10233600;29;1988;-79
2021/04/18 08:18:35;;;;;;;;;;;6.30;99.90;;;5.42;76.93;95846.28;10234404;28;1492;-80
2021/04/18 08:23:38;;;;;;;;;;;6.30;99.90;;;5.46;80.27;95853.81;10231370;29;1300;-75
2021/04/18 08:28:41;;;;;;;;;;;6.40;99.90;;;5.35;79.64;95858.16;10221868;29;1528;-79
2021/04/18 08:33:43;;;;;;;;;;;7.10;99.90;;;5.27;80.26;95862.00;10219997;29;1902;-78
2021/04/18 08:38:46;;;;;;;;;;;6.50;99.90;;;4.83;81.21;95868.84;10218843;29;1857;-77
2021/04/18 08:43:51;;;;;;;;;;;6.80;99.90;;;5.43;81.11;95855.91;10230270;29;1608;-77
2021/04/18 08:48:53;;;;;;;;;;;6.90;99.90;;;5.60;80.40;95863.16;10234834;28;1345;-75
2021/04/18 08:54:10;;;;;;;;;;;6.40;99.90;;;5.96;79.19;95865.38;10243157;29;1910;-75
2021/04/18 08:59:12;;;;;;;;;;;7.10;99.90;;;5.59;77.35;95872.16;10246031;28;1324;-76
2021/04/18 09:04:13;;;;;;;;;;;6.70;99.90;;;5.57;78.58;95874.28;10232592;29;1583;-76
2021/04/18 09:09:15;;;;;;;;;;;6.50;99.90;;;5.28;77.84;95886.78;10214281;29;1285;-76
2021/04/18 09:14:17;;;;;;;;;;;6.30;99.90;;;6.25;82.28;95873.31;10209328;28;1911;-74
2021/04/18 09:19:19;;;;;;;;;;;7.20;99.90;;;6.08;78.60;95872.50;10213536;28;1586;-76
2021/04/18 09:24:20;;;;;;;;;;;7.70;99.90;;;5.94;77.24;95869.34;10215932;28;1187;-79
2021/04/18 09:29:23;;;;;;;;;;;7.00;99.90;;;5.66;78.45;95875.50;10209835;29;1721;-77
2021/04/18 09:34:25;;;;;;;;;;;8.30;99.90;;;5.63;76.53;95878.66;10214832;29;1914;-77
2021/04/18 09:39:27;;;;;;;;;;;6.70;99.90;;;5.75;80.49;95879.41;10221005;29;1497;-77
2021/04/18 09:44:30;;;;;;;;;;;7.60;99.90;;;5.49;75.46;95886.13;10211745;29;1516;-78
2021/04/18 09:49:32;;;;;;;;;;;6.70;99.90;;;5.52;76.04;95876.84;10211184;29;1285;-78
2021/04/18 09:54:34;;;;;;;;;;;6.40;99.90;;;5.61;73.84;95881.56;10212013;29;1907;-80
2021/04/18 09:59:36;;;;;;;;;;;6.50;99.90;;;6.30;75.61;95877.91;10220824;29;2156;-77
2021/04/18 10:04:37;;;;;;;;;;;7.30;99.90;;;7.49;70.89;95870.09;10195947;29;1925;-78
2021/04/18 10:09:39;;;;;;;;;;;7.60;99.90;;;8.41;66.69;95865.59;10215642;29;2045;-77
2021/04/18 10:14:41;;;;;;;;;;;8.40;99.90;;;8.41;63.85;95873.66;10210148;29;1982;-78
2021/04/18 10:19:43;;;;;;;;;;;9.80;99.90;;;9.05;66.91;95867.31;10203761;29;1578;-75
2021/04/18 10:24:47;;;;;;;;;;;9.50;99.90;;;8.60;65.66;95866.00;10209106;29;1098;-79
2021/04/18 10:29:48;;;;;;;;;;;9.70;99.90;;;8.06;67.36;95861.53;10205950;29;1548;-78
2021/04/18 10:34:50;;;;;;;;;;;9.20;99.90;;;8.07;67.65;95865.84;10215775;29;2053;-77
2021/04/18 10:39:52;;;;;;;;;;;8.90;99.90;;;7.54;66.42;95864.81;10206583;29;2097;-77
2021/04/18 10:44:53;;;;;;;;;;;8.50;99.90;;;7.53;66.87;95865.06;10207823;29;1697;-78
2021/04/18 10:49:55;;;;;;;;;;;8.20;99.90;;;8.38;61.27;95858.06;10214368;29;1310;-77
2021/04/18 10:54:57;;;;;;;;;;;8.60;99.90;;;8.28;61.71;95852.63;10212924;29;2136;-78
2021/04/18 11:00:00;;;;;;;;;;;9.80;99.90;;;8.21;62.24;95849.38;10219180;29;1947;-77
2021/04/18 11:05:02;;;;;;;;;;;9.00;99.90;;;8.00;66.17;95849.19;10205518;29;1684;-77
2021/04/18 11:10:03;;;;;;;;;;;8.80;99.90;;;7.73;65.79;95846.53;10207533;29;1559;-78
2021/04/18 11:15:05;;;;;;;;;;;8.70;99.90;;;7.18;67.59;95850.25;10217141;29;1997;-77
2021/04/18 11:20:07;;;;;;;;;;;9.30;99.90;;;7.49;65.86;95843.34;10213466;29;1539;-78
2021/04/18 11:25:09;;;;;;;;;;;8.20;99.90;;;7.75;63.57;95848.97;10219819;29;1156;-79
2021/04/18 11:30:11;;;;;;;;;;;8.40;99.90;;;7.74;64.53;95850.81;10198002;29;1535;-76
2021/04/18 11:35:13;;;;;;;;;;;9.00;99.90;;;8.74;59.08;95848.38;10202378;29;2118;-78
2021/04/18 11:40:21;;;;;;;;;;;10.00;99.90;;;9.05;58.78;95852.03;10213581;29;2120;-77
2021/04/18 11:45:23;;;;;;;;;;;9.70;99.90;;;9.77;57.37;95836.94;10213214;29;1610;-78
2021/04/18 11:50:24;;;;;;;;;;;10.40;99.90;;;9.30;57.91;95840.59;10223418;28;1955;-78
2021/04/18 11:55:26;;;;;;;;;;;10.20;99.90;;;9.46;55.83;95847.59;10222610;29;1993;-77
2021/04/18 12:00:28;;;;;;;;;;;10.30;99.90;;;9.86;56.88;95837.19;10226287;29;1943;-76
2021/04/18 12:05:29;;;;;;;;;;;10.50;99.90;;;10.75;52.63;95841.19;10217818;29;1709;-77
2021/04/18 12:10:31;;;;;;;;;;;11.00;99.90;;;10.44;51.09;95840.47;10218033;29;2010;-77
2021/04/18 12:15:33;;;;;;;;;;;11.50;99.90;;;10.49;52.05;95841.25;10201735;29;1972;-78
2021/04/18 12:20:35;;;;;;;;;;;11.30;99.90;;;9.62;53.71;95836.91;10196686;29;2349;-78
2021/04/18 12:25:37;;;;;;;;;;;10.80;99.90;;;9.84;53.74;95837.47;10216922;29;1606;-78
2021/04/18 12:30:38;;;;;;;;;;;10.70;99.90;;;9.97;51.61;95828.09;10217844;29;1257;-78
2021/04/18 12:35:40;;;;;;;;;;;10.80;99.90;;;9.30;54.13;95837.91;10211452;29;1907;-76
2021/04/18 12:40:42;;;;;;;;;;;10.30;99.90;;;9.03;57.49;95840.75;10201540;29;2027;-76
2021/04/18 12:45:44;;;;;;;;;;;10.00;99.90;;;8.94;56.17;95824.38;10211901;28;1615;-80
2021/04/18 12:50:46;;;;;;;;;;;10.10;99.90;;;8.68;55.90;95835.22;10220245;29;1394;-77
2021/04/18 12:55:48;;;;;;;;;;;9.70;99.90;;;8.47;56.34;95837.78;10211273;29;2226;-77
2021/04/18 13:00:50;;;;;;;;;;;10.40;99.90;;;8.71;56.47;95832.81;10220644;29;2046;-78
2021/04/18 13:05:51;;;;;;;;;;;9.50;99.90;;;8.78;55.34;95837.94;10219053;29;1692;-77
2021/04/18 13:10:53;;;;;;;;;;;9.60;99.90;;;8.16;57.23;95844.78;10197041;29;1836;-77
2021/04/18 13:15:55;;;;;;;;;;;9.40;99.90;;;7.94;59.27;95836.81;10218687;29;2169;-77
2021/04/18 13:20:57;;;;;;;;;;;9.00;99.90;;;7.56;60.34;95837.81;10200487;29;1667;-77
2021/04/18 13:25:59;;;;;;;;;;;9.00;99.90;;;8.26;58.28;95839.47;10214744;29;2043;-81
2021/04/18 13:31:01;;;;;;;;;;;9.20;99.90;;;7.94;59.04;95836.81;10212888;29;1499;-77
2021/04/18 13:36:03;;;;;;;;;;;8.90;99.90;;;7.60;59.92;95836.25;10215677;29;2014;-77
2021/04/18 13:41:05;;;;;;;;;;;9.20;99.90;;;7.42;60.14;95833.94;10208918;29;1979;-77
2021/04/18 13:46:07;;;;;;;;;;;9.50;99.90;;;7.08;61.13;95838.63;10217396;29;2068;-77
2021/04/18 13:51:09;;;;;;;;;;;9.30;99.90;;;7.29;60.72;95841.28;10194436;29;1296;-77
2021/04/18 13:56:10;;;;;;;;;;;9.20;99.90;;;7.29;61.35;95837.81;10214452;29;2236;-77
2021/04/18 14:01:12;;;;;;;;;;;8.30;99.90;;;7.44;61.09;95835.28;10214065;29;1219;-76
2021/04/18 14:06:19;;;;;;;;;;;8.30;99.90;;;7.48;60.44;95832.91;10205569;29;1828;-78
2021/04/18 14:11:21;;;;;;;;;;;8.30;99.90;;;7.66;60.15;95829.88;10195878;29;1586;-77
2021/04/18 14:16:23;;;;;;;;;;;8.40;99.90;;;7.30;61.24;95839.41;10197036;29;2416;-78
2021/04/18 14:21:26;;;;;;;;;;;8.30;99.90;;;6.98;60.98;95829.44;10199164;29;1602;-77
2021/04/18 14:26:30;;;;;;;;;;;9.30;99.90;;;6.92;61.55;95825.06;10214763;29;1093;-75
2021/04/18 14:31:32;;;;;;;;;;;7.90;99.90;;;7.34;61.10;95829.84;10214274;29;2007;-77
2021/04/18 14:36:34;;;;;;;;;;;8.70;99.90;;;7.20;60.20;95828.63;10201040;29;1922;-77
2021/04/18 14:41:36;;;;;;;;;;;8.20;99.90;;;6.97;61.85;95821.66;10216892;29;1719;-76
2021/04/18 14:46:38;;;;;;;;;;;8.60;99.90;;;7.05;60.67;95834.59;10211811;29;2013;-77
2021/04/18 14:51:40;;;;;;;;;;;8.50;99.90;;;6.90;61.53;95835.22;10209837;29;2231;-77
2021/04/18 14:56:42;;;;;;;;;;;7.90;99.90;;;6.88;61.97;95834.66;10211197;29;1981;-76
2021/04/18 15:01:43;;;;;;;;;;;8.60;99.90;;;6.90;62.44;95826.41;10211939;29;1919;-77
2021/04/18 15:06:45;;;;;;;;;;;8.40;99.90;;;6.94;62.39;95825.66;10211935;29;2050;-77
2021/04/18 15:11:47;;;;;;;;;;;8.20;99.90;;;7.05;61.82;95830.03;10263006;28;1975;-80
2021/04/18 15:16:49;;;;;;;;;;;8.00;99.90;;;6.98;61.90;95829.44;10262071;29;1895;-79
2021/04/18 15:21:51;;;;;;;;;;;8.00;99.90;;;7.25;61.39;95834.84;10253660;28;1383;-77
2021/04/18 15:26:53;;;;;;;;;;;8.10;99.90;;;7.04;62.56;95838.31;10215791;29;1871;-76
2021/04/18 15:31:55;;;;;;;;;;;8.10;99.90;;;7.00;61.53;95835.34;10218603;28;2046;-76
2021/04/18 15:36:57;;;;;;;;;;;9.00;99.90;;;6.95;62.32;95848.66;10196885;29;2219;-77
2021/04/18 15:41:59;;;;;;;;;;;8.00;99.90;;;7.11;61.91;95838.13;10218217;29;1575;-77
2021/04/18 15:47:01;;;;;;;;;;;8.10;99.90;;;7.29;61.49;95840.47;10213036;29;1333;-77
2021/04/18 15:52:03;;;;;;;;;;;8.20;99.90;;;7.04;61.51;95841.00;10221329;29;2202;-76
2021/04/18 15:57:05;;;;;;;;;;;8.20;99.90;;;6.80;63.01;95844.97;10220412;29;1969;-76
2021/04/18 16:02:07;;;;;;;;;;;7.90;99.90;;;6.81;62.75;95843.91;10218768;29;1654;-76
2021/04/18 16:07:10;;;;;;;;;;;7.80;99.90;;;6.86;62.79;95843.97;10220807;29;1625;-77
2021/04/18 16:12:14;;;;;;;;;;;7.80;99.90;;;6.52;63.66;95837.91;10223500;29;1711;-77
2021/04/18 16:17:15;;;;;;;;;;;7.70;99.90;;;6.60;63.69;95837.50;10224054;29;1944;-78
2021/04/18 16:22:17;;;;;;;;;;;7.60;99.90;;;6.67;63.13;95838.13;10228755;28;1241;-77
2021/04/18 16:27:20;;;;;;;;;;;7.60;99.90;;;6.64;63.35;95834.09;10232643;29;1697;-76
2021/04/18 16:32:21;;;;;;;;;;;7.90;99.90;;;6.57;63.82;95840.66;10219767;29;1588;-77
2021/04/18 16:37:23;;;;;;;;;;;7.90;99.90;;;6.65;62.70;95840.22;10232267;29;1895;-77
2021/04/18 16:42:27;;;;;;;;;;;8.50;99.90;;;6.76;62.56;95842.81;10225664;29;1654;-77
2021/04/18 16:47:29;;;;;;;;;;;8.90;99.90;;;6.84;62.66;95846.09;10207879;29;1519;-78
2021/04/18 16:52:31;;;;;;;;;;;7.80;99.90;;;7.11;61.31;95844.28;10221491;29;1350;-78
2021/04/18 16:57:33;;;;;;;;;;;8.00;99.90;;;7.16;61.69;95846.22;10221834;29;1971;-77
2021/04/18 17:02:35;;;;;;;;;;;8.10;99.90;;;6.87;61.65;95858.94;10219719;29;1353;-76
2021/04/18 17:07:43;;;;;;;;;;;8.60;99.90;;;6.92;62.39;95859.81;10216451;29;1646;-78
2021/04/18 17:12:45;;;;;;;;;;;8.40;99.90;;;6.98;63.13;95863.38;10231226;29;1635;-77
2021/04/18 17:17:46;;;;;;;;;;;8.00;99.90;;;6.97;62.56;95865.22;10246328;29;1915;-77
2021/04/18 17:22:48;;;;;;;;;;;8.00;99.90;;;6.87;62.97;95867.78;10230443;29;1662;-77
2021/04/18 17:27:50;;;;;;;;;;;8.00;99.90;;;6.77;63.16;95868.47;10209529;29;1295;-78
2021/04/18 17:32:52;;;;;;;;;;;7.90;99.90;;;6.53;64.65;95884.94;10205152;29;1583;-76
2021/04/18 17:37:54;;;;;;;;;;;7.80;99.90;;;6.36;64.87;95888.44;10233326;29;1911;-78
2021/04/18 17:42:55;;;;;;;;;;;7.60;99.90;;;6.24;66.42;95893.06;10230161;29;1551;-78
2021/04/18 17:47:57;;;;;;;;;;;8.60;99.90;;;6.09;65.98;95895.47;10227977;29;1282;-77
2021/04/18 17:52:59;;;;;;;;;;;8.10;99.90;;;6.02;66.57;95890.28;10229918;28;1669;-76
2021/04/18 17:58:01;;;;;;;;;;;7.60;99.90;;;5.88;66.85;95896.97;10222971;29;1973;-78
2021/04/18 18:03:03;;;;;;;;;;;7.80;99.90;;;5.74;67.55;95893.78;10199082;29;1671;-77
2021/04/18 18:08:07;;;;;;;;;;;7.60;99.90;;;5.63;68.16;95891.97;10211836;29;1692;-77
2021/04/18 18:13:09;;;;;;;;;;;6.90;99.90;;;5.49;68.42;95901.34;10204134;29;1976;-78
2021/04/18 18:18:11;;;;;;;;;;;6.70;99.90;;;5.39;69.23;95907.25;10210853;29;1583;-80
2021/04/18 18:23:14;;;;;;;;;;;6.60;99.90;;;5.34;69.48;95915.16;10215544;29;1642;-78
2021/04/18 18:28:16;;;;;;;;;;;6.80;99.90;;;5.24;69.97;95914.97;10212457;29;2057;-79
2021/04/18 18:33:18;;;;;;;;;;;7.20;99.90;;;5.19;70.08;95923.66;10227210;29;2156;-80
2021/04/18 18:38:20;;;;;;;;;;;7.00;99.90;;;5.05;70.22;95919.66;10238053;29;2133;-78
2021/04/18 18:43:22;;;;;;;;;;;6.30;99.90;;;4.99;70.79;95923.25;10245456;29;1946;-79
2021/04/18 18:48:24;;;;;;;;;;;6.20;99.90;;;4.89;71.32;95929.97;10232761;29;1996;-79
2021/04/18 18:53:27;;;;;;;;;;;7.00;99.90;;;4.80;71.86;95928.72;10229765;29;1978;-77
2021/04/18 18:58:29;;;;;;;;;;;6.30;99.90;;;4.72;72.37;95933.59;10231719;29;2006;-76
2021/04/18 19:03:31;;;;;;;;;;;6.80;99.90;;;4.68;72.78;95938.56;10231698;29;2302;-81
2021/04/18 19:08:34;;;;;;;;;;;7.10;99.90;;;4.61;73.30;95943.19;10221531;29;1969;-79
2021/04/18 19:13:35;;;;;;;;;;;5.80;99.90;;;4.50;73.62;95946.66;10230172;28;1984;-79
2021/04/18 19:18:38;;;;;;;;;;;6.70;99.90;;;4.39;74.77;95944.78;10221112;29;2045;-77
2021/04/18 19:23:40;;;;;;;;;;;6.00;99.90;;;4.43;74.53;95959.28;10221650;29;2116;-78
2021/04/18 19:28:42;;;;;;;;;;;5.90;99.90;;;4.38;74.78;95959.16;10229136;29;1958;-78
2021/04/18 19:33:44;;;;;;;;;;;5.60;99.90;;;4.37;75.11;95957.53;10229964;29;1993;-77
2021/04/18 19:38:46;;;;;;;;;;;6.30;99.90;;;4.30;75.39;95969.09;10225328;29;1950;-78
2021/04/18 19:43:48;;;;;;;;;;;6.00;99.90;;;4.36;75.26;95958.59;10228889;29;2024;-75
2021/04/18 19:48:50;;;;;;;;;;;5.50;99.90;;;4.42;75.06;95965.66;10225989;29;2001;-78
2021/04/18 19:53:51;;;;;;;;;;;5.50;99.90;;;4.56;74.87;95965.19;10217556;29;2163;-76
2021/04/18 19:58:53;;;;;;;;;;;5.60;99.90;;;4.65;73.92;95965.66;10228023;28;1989;-76
2021/04/18 20:03:55;;;;;;;;;;;6.50;99.90;;;4.67;73.85;95966.25;10215358;29;2001;-81
2021/04/18 20:08:57;;;;;;;;;;;5.70;99.90;;;4.70;73.37;95965.75;10201146;29;2283;-77
2021/04/18 20:13:59;;;;;;;;;;;5.80;99.90;;;4.80;73.36;95967.88;10197131;29;2084;-78
2021/04/18 20:19:01;;;;;;;;;;;5.80;99.90;;;4.83;72.75;95962.06;10219511;29;2285;-80
2021/04/18 20:24:03;;;;;;;;;;;5.80;99.90;;;4.75;72.98;95960.56;10213519;29;2204;-77
2021/04/18 20:29:04;;;;;;;;;;;5.80;99.90;;;4.77;72.65;95961.16;10214204;29;2186;-78
2021/04/18 20:34:06;;;;;;;;;;;6.00;99.90;;;4.76;72.96;95962.16;10207348;29;1963;-77
2021/04/18 20:39:08;;;;;;;;;;;6.90;99.90;;;4.68;73.43;95967.84;10243676;28;2146;-77
2021/04/18 20:44:10;;;;;;;;;;;5.80;99.90;;;4.68;73.76;95967.06;10225725;29;2009;-78
2021/04/18 20:49:12;;;;;;;;;;;6.20;99.90;;;4.69;73.62;95964.16;10220467;28;1811;-78
2021/04/18 20:54:14;;;;;;;;;;;5.90;99.90;;;4.64;73.43;95964.03;10221273;29;2009;-78
2021/04/18 20:59:16;;;;;;;;;;;5.70;99.90;;;4.57;73.76;95963.34;10206693;28;1942;-77
2021/04/18 21:04:17;;;;;;;;;;;5.70;99.90;;;4.49;74.60;95955.69;10207750;29;2106;-78
2021/04/18 21:09:19;;;;;;;;;;;5.60;99.90;;;4.36;75.21;95961.25;10208414;29;2005;-78
2021/04/18 21:14:22;;;;;;;;;;;5.50;99.90;;;4.27;75.25;95963.44;10212810;29;1989;-76
2021/04/18 21:19:26;;;;;;;;;;;5.50;99.90;;;4.19;75.59;95961.91;10196323;29;2017;-79
2021/04/18 21:24:27;;;;;;;;;;;5.40;99.90;;;4.11;76.24;95954.25;10222961;29;2084;-76
2021/04/18 21:29:29;;;;;;;;;;;5.90;99.90;;;4.03;76.52;95958.06;10218894;29;2056;-78
2021/04/18 21:34:31;;;;;;;;;;;5.30;99.90;;;3.93;76.57;95956.97;10212966;29;1985;-78
2021/04/18 21:39:33;;;;;;;;;;;5.80;99.90;;;3.88;77.56;95954.19;10199277;29;2209;-78
2021/04/18 21:44:35;;;;;;;;;;;5.10;99.90;;;3.87;77.25;95958.69;10192680;29;2011;-76
2021/04/18 21:49:36;;;;;;;;;;;5.50;99.90;;;3.77;77.66;95948.63;10200241;29;2045;-78
2021/04/18 21:54:38;;;;;;;;;;;5.00;99.90;;;3.73;78.13;95952.75;10208577;29;1970;-77
2021/04/18 21:59:40;;;;;;;;;;;4.90;99.90;;;3.65;78.53;95947.78;10217653;29;1958;-74
2021/04/18 22:04:42;;;;;;;;;;;6.20;99.90;;;3.62;78.22;95960.69;10218439;29;1938;-76
2021/04/18 22:09:54;;;;;;;;;;;5.60;99.90;;;3.55;78.47;95958.13;10204783;28;2703;-77
2021/04/18 22:14:56;;;;;;;;;;;4.80;99.90;;;3.46;78.76;95948.84;10210873;29;2013;-76
2021/04/18 22:19:57;;;;;;;;;;;4.70;99.90;;;3.43;79.16;95951.94;10194342;29;2041;-76
2021/04/18 22:24:59;;;;;;;;;;;5.10;99.90;;;3.36;79.22;95945.91;10208876;29;1855;-77
2021/04/18 22:30:01;;;;;;;;;;;4.90;99.90;;;3.33;79.95;95954.31;10208865;29;1820;-77
2021/04/18 22:35:03;;;;;;;;;;;4.60;99.90;;;3.29;80.03;95945.97;10214069;29;1976;-76
2021/04/18 22:40:04;;;;;;;;;;;4.50;99.90;;;3.30;80.16;95946.78;10208444;29;2024;-76
2021/04/18 22:45:06;;;;;;;;;;;5.10;99.90;;;3.29;80.47;95945.16;10210537;28;1965;-76
2021/04/18 22:50:08;;;;;;;;;;;4.50;99.90;;;3.30;80.13;95941.47;10213967;29;1905;-75
2021/04/18 22:55:09;;;;;;;;;;;4.50;99.90;;;3.39;79.73;95940.16;10205895;29;2004;-76
2021/04/18 23:00:11;;;;;;;;;;;4.50;99.90;;;3.46;79.12;95939.03;10199437;29;1997;-76
2021/04/18 23:05:13;;;;;;;;;;;5.10;99.90;;;3.53;79.10;95941.59;10210067;29;2104;-79
2021/04/18 23:10:15;;;;;;;;;;;4.60;99.90;;;3.62;78.89;95934.91;10209586;29;1819;-77
2021/04/18 23:15:17;;;;;;;;;;;5.20;99.90;;;3.66;78.30;95930.78;10205920;29;2057;-76
2021/04/18 23:20:19;;;;;;;;;;;6.50;99.90;;;3.73;78.42;95923.50;10202149;29;1711;-77
2021/04/18 23:25:20;;;;;;;;;;;6.30;99.90;;;3.76;77.89;95916.94;10205986;29;2092;-78
2021/04/18 23:30:22;;;;;;;;;;;4.80;99.90;;;3.80;77.46;95916.25;10209747;29;1714;-76
2021/04/18 23:35:24;;;;;;;;;;;4.80;99.90;;;3.79;77.87;95922.59;10216195;28;2112;-77
2021/04/18 23:40:25;;;;;;;;;;;5.00;99.90;;;3.84;78.10;95913.16;10216220;29;1920;-76